Time;durP1;ratioP1;P1;durP2;ratioP2;P2;SDS_P1;SDS_P2;PMS_P1;PMS_P2;Temp;Humidity;BMP_temperature;BMP_pressure;BME280_temperature;BME280_humidity;BME280_pressure;Samples;Min_cycle;Max_cycle;Signal;HPM_P1;HPM_P2
2023/06/10 00:01:05;;;;;;;6.32;5.82;;;27.40;44.10;28.20;100574.00;;;;5019496;28;20199;-54
2023/06/10 00:03:32;;;;;;;6.30;5.82;;;27.30;44.10;28.20;100569.00;;;;5011554;28;20214;-51
2023/06/10 00:05:58;;;;;;;6.53;5.93;;;27.30;44.20;28.10;100571.00;;;;5010187;28;20259;-52
2023/06/10 00:08:24;;;;;;;6.40;5.80;;;27.30;44.20;28.10;100568.00;;;;5013014;28;20718;-52
2023/06/10 00:10:50;;;;;;;6.50;6.00;;;27.30;44.30;28.10;100573.00;;;;5010116;28;20587;-53
2023/06/10 00:13:16;;;;;;;6.50;5.90;;;27.30;44.40;28.10;100569.00;;;;5010604;28;20230;-53
2023/06/10 00:15:42;;;;;;;6.30;5.80;;;27.30;44.30;28.00;100564.00;;;;5018884;28;20179;-54
2023/06/10 00:18:09;;;;;;;6.70;6.20;;;27.30;44.30;28.00;100578.00;;;;5017243;28;20199;-53
2023/06/10 00:20:37;;;;;;;6.13;5.65;;;27.20;44.30;28.00;100565.00;;;;5011130;28;20195;-53
2023/06/10 00:23:03;;;;;;;7.05;5.82;;;27.20;44.40;28.00;100571.00;;;;5010241;28;20175;-53
2023/06/10 00:25:29;;;;;;;6.22;5.82;;;27.20;44.40;27.90;100566.00;;;;5009909;28;20665;-53
2023/06/10 00:27:55;;;;;;;6.50;5.97;;;27.20;44.50;27.90;100565.00;;;;5010236;28;20175;-53
2023/06/10 00:30:21;;;;;;;6.05;5.55;;;27.10;44.40;27.90;100566.00;;;;5010135;28;20190;-54
2023/06/10 00:32:47;;;;;;;6.82;6.28;;;27.10;44.40;27.90;100572.00;;;;5010149;28;20195;-54
2023/06/10 00:35:12;;;;;;;6.50;5.80;;;27.10;44.40;27.90;100569.00;;;;5009518;28;20274;-54
2023/06/10 00:37:38;;;;;;;7.60;6.22;;;27.10;44.60;27.80;100570.00;;;;5008402;28;20203;-53
2023/06/10 00:40:05;;;;;;;6.30;5.70;;;27.10;44.60;27.80;100572.00;;;;5009814;28;20206;-52
2023/06/10 00:42:31;;;;;;;7.10;6.60;;;27.10;44.60;27.80;100570.00;;;;5009571;28;20196;-53
2023/06/10 00:44:56;;;;;;;6.90;6.40;;;27.10;44.70;27.80;100570.00;;;;5009387;28;20254;-53
2023/06/10 00:47:22;;;;;;;6.93;6.30;;;27.00;44.50;27.80;100506.00;;;;5009374;28;20250;-53
2023/06/10 00:49:50;;;;;;;6.60;6.05;;;27.00;44.60;27.70;100565.00;;;;5008276;28;20218;-53
2023/06/10 00:52:16;;;;;;;6.43;5.90;;;27.00;44.60;27.70;100569.00;;;;5008462;28;20196;-53
2023/06/10 00:54:41;;;;;;;6.47;5.97;;;27.00;44.60;27.70;100576.00;;;;5008163;28;20175;-53
2023/06/10 00:57:07;;;;;;;6.63;6.05;;;26.90;44.60;27.70;100572.00;;;;5011743;28;20195;-53
2023/06/10 00:59:33;;;;;;;6.30;5.78;;;26.90;44.80;27.60;100575.00;;;;4995660;28;20654;-53
2023/06/10 01:01:59;;;;;;;6.80;6.20;;;26.90;44.80;27.60;100567.00;;;;5013415;28;20200;-53
2023/06/10 01:04:24;;;;;;;6.70;6.20;;;26.90;44.80;27.50;100583.00;;;;5013109;28;20257;-53
2023/06/10 01:07:17;;;;;;;6.63;6.13;;;26.90;44.90;27.50;100574.00;;;;5013469;28;20238;-53
2023/06/10 01:10:01;;;;;;;6.68;6.18;;;26.80;44.90;27.50;100565.00;;;;5011763;28;20171;-53
2023/06/10 01:12:48;;;;;;;7.03;6.35;;;26.80;44.90;27.50;100574.00;;;;4995543;28;20214;-53
2023/06/10 01:15:15;;;;;;;6.32;5.72;;;26.80;45.00;27.40;100577.00;;;;5012070;28;20271;-53
2023/06/10 01:17:58;;;;;;;6.95;6.28;;;26.80;45.00;27.40;100567.00;;;;5012878;28;20214;-54
2023/06/10 01:20:27;;;;;;;7.05;6.45;;;26.80;45.10;27.40;100574.00;;;;5012937;28;20176;-52
2023/06/10 01:22:57;;;;;;;6.60;6.10;;;26.70;45.00;27.40;100569.00;;;;5012860;28;20584;-53
2023/06/10 01:25:27;;;;;;;6.97;6.32;;;26.70;45.00;27.30;100574.00;;;;5012775;28;20214;-53
2023/06/10 01:28:18;;;;;;;6.47;5.97;;;26.70;45.00;27.30;100575.00;;;;4995986;28;20211;-53
2023/06/10 01:31:00;;;;;;;6.75;6.15;;;26.70;45.10;27.30;100574.00;;;;5012620;28;20242;-53
2023/06/10 01:33:29;;;;;;;6.70;6.20;;;26.70;45.20;27.30;100575.00;;;;5012570;28;20552;-54
2023/06/10 01:35:59;;;;;;;6.55;5.80;;;26.70;45.20;27.30;100575.00;;;;5012492;28;20175;-53
2023/06/10 01:38:30;;;;;;;6.80;6.20;;;26.60;45.10;27.30;100581.00;;;;5011416;28;20205;-53
2023/06/10 01:40:56;;;;;;;6.20;5.70;;;26.60;45.10;27.20;100576.00;;;;4995350;28;20275;-52
2023/06/10 01:43:22;;;;;;;6.88;6.28;;;26.60;45.10;27.20;100580.00;;;;5011306;28;20255;-52
2023/06/10 01:45:47;;;;;;;6.55;6.05;;;26.60;45.10;27.20;100573.00;;;;5011353;28;20172;-52
2023/06/10 01:48:13;;;;;;;6.30;5.80;;;26.60;45.10;27.20;100564.00;;;;5012880;28;20179;-53
2023/06/10 01:50:39;;;;;;;6.32;5.82;;;26.60;45.20;27.20;100565.00;;;;5012097;28;20222;-52
2023/06/10 01:53:05;;;;;;;6.47;5.97;;;26.60;45.80;27.10;100573.00;;;;5012433;28;20233;-53
2023/06/10 01:55:31;;;;;;;6.53;6.00;;;26.50;45.00;27.10;100570.00;;;;5012111;28;20658;-52
2023/06/10 01:57:57;;;;;;;6.88;6.28;;;26.50;45.00;27.10;100563.00;;;;5011812;28;20199;-52
2023/06/10 02:00:22;;;;;;;7.05;6.45;;;26.50;45.00;27.10;100573.00;;;;5012123;28;20163;-53
2023/06/10 02:02:48;;;;;;;6.55;6.00;;;26.50;44.90;27.10;100581.00;;;;5012076;28;20772;-53
2023/06/10 02:05:14;;;;;;;7.32;6.63;;;26.50;44.80;27.00;100565.00;;;;5021030;28;20662;-53
2023/06/10 02:07:40;;;;;;;6.60;6.10;;;26.40;44.70;27.00;100568.00;;;;5022977;28;20207;-53
2023/06/10 02:10:07;;;;;;;7.13;6.53;;;26.40;44.80;26.80;100571.00;;;;5012311;28;20663;-53
2023/06/10 02:12:33;;;;;;;6.53;6.03;;;26.40;44.80;27.00;100574.00;;;;4994401;28;20196;-52
2023/06/10 02:14:59;;;;;;;6.63;6.05;;;26.40;44.90;27.00;100573.00;;;;5012211;28;20187;-53
2023/06/10 02:17:24;;;;;;;6.40;5.90;;;26.40;44.70;27.00;100575.00;;;;5012121;28;20253;-52
2023/06/10 02:19:53;;;;;;;6.80;6.20;;;26.40;44.60;27.00;100572.00;;;;5015946;28;20653;-52
2023/06/10 02:22:23;;;;;;;6.05;5.55;;;26.40;44.70;27.00;100587.00;;;;5021525;28;20641;-54
2023/06/10 02:24:49;;;;;;;6.10;5.60;;;26.30;44.50;26.90;100586.00;;;;5011821;28;20762;-53
2023/06/10 02:27:19;;;;;;;5.93;5.50;;;26.40;44.70;26.90;100594.00;;;;5011746;28;20180;-53
2023/06/10 02:29:45;;;;;;;5.93;5.53;;;26.40;44.40;26.90;100593.00;;;;5011919;28;20184;-53
2023/06/10 02:32:10;;;;;;;6.38;5.85;;;26.40;44.40;26.90;100599.00;;;;5011624;28;20207;-53
2023/06/10 02:34:36;;;;;;;6.13;5.60;;;26.40;44.80;26.90;100604.00;;;;5011178;28;20230;-53
2023/06/10 02:37:02;;;;;;;6.25;5.75;;;26.40;44.40;26.90;100603.00;;;;5011155;28;20191;-53
2023/06/10 02:39:28;;;;;;;6.25;5.75;;;26.40;44.50;26.70;100601.00;;;;5011570;28;20179;-52
2023/06/10 02:41:54;;;;;;;6.32;5.78;;;26.40;44.90;26.90;100606.00;;;;5011333;28;20187;-52
2023/06/10 02:44:20;;;;;;;7.10;6.40;;;26.50;45.10;26.90;100605.00;;;;5010997;28;20180;-52
2023/06/10 02:46:46;;;;;;;6.60;6.00;;;26.50;44.70;26.90;100598.00;;;;5010780;28;20176;-51
2023/06/10 02:49:12;;;;;;;6.32;5.82;;;26.40;45.00;26.90;100600.00;;;;5010761;28;20205;-51
2023/06/10 02:51:38;;;;;;;6.25;5.65;;;26.40;45.10;26.90;100602.00;;;;5010863;28;20207;-51
2023/06/10 02:54:04;;;;;;;5.95;5.55;;;26.40;45.30;26.90;100603.00;;;;5011009;28;20183;-52
2023/06/10 02:56:31;;;;;;;6.35;5.82;;;26.40;45.50;26.90;100606.00;;;;5009522;28;20634;-53
2023/06/10 02:58:57;;;;;;;6.25;5.65;;;26.40;45.80;26.80;100601.00;;;;5010922;28;20179;-52
2023/06/10 03:01:23;;;;;;;6.05;5.55;;;26.40;45.70;26.90;100599.00;;;;5010855;28;20210;-53
2023/06/10 03:03:50;;;;;;;6.60;6.00;;;26.40;45.80;26.80;100598.00;;;;5010808;28;20176;-53
2023/06/10 03:06:16;;;;;;;6.25;5.72;;;26.40;46.20;26.80;100603.00;;;;5010748;28;20168;-52
2023/06/10 03:08:41;;;;;;;6.30;5.80;;;26.40;46.00;26.80;100599.00;;;;5010970;28;20178;-53
2023/06/10 03:11:07;;;;;;;6.90;6.20;;;26.30;46.10;26.80;100603.00;;;;5010946;28;20230;-52
2023/06/10 03:13:33;;;;;;;6.07;5.68;;;26.30;46.20;26.80;100601.00;;;;5010958;28;20183;-52
2023/06/10 03:15:58;;;;;;;7.00;6.40;;;26.30;46.20;26.80;100599.00;;;;5010518;28;20549;-52
2023/06/10 03:18:27;;;;;;;5.93;5.50;;;26.30;46.40;26.80;100607.00;;;;5010259;28;20199;-52
2023/06/10 03:20:53;;;;;;;6.05;5.65;;;26.30;47.20;26.70;100610.00;;;;5010386;28;20184;-53
2023/06/10 03:23:19;;;;;;;6.35;5.85;;;26.30;46.60;26.70;100603.00;;;;5009458;28;20179;-53
2023/06/10 03:25:45;;;;;;;6.35;5.80;;;26.30;46.60;26.70;100611.00;;;;5010364;28;20222;-54
2023/06/10 03:28:11;;;;;;;6.18;5.60;;;26.30;46.80;26.70;100602.00;;;;5009254;28;20182;-54
2023/06/10 03:30:36;;;;;;;6.97;6.10;;;26.30;47.00;26.70;100613.00;;;;5009097;28;20179;-54
2023/06/10 03:33:02;;;;;;;6.32;5.72;;;26.30;46.60;26.70;100611.00;;;;5008582;28;20194;-53
2023/06/10 03:35:28;;;;;;;6.95;6.30;;;26.30;46.50;26.70;100616.00;;;;5001133;28;20180;-55
2023/06/10 03:37:54;;;;;;;6.55;6.05;;;26.30;46.50;26.50;100611.00;;;;5008991;28;20237;-54
2023/06/10 03:40:20;;;;;;;7.35;6.75;;;26.30;46.60;26.70;100616.00;;;;5008679;28;20199;-57
2023/06/10 03:42:46;;;;;;;6.97;6.47;;;26.30;46.60;26.70;100613.00;;;;5002486;28;20203;-54
2023/06/10 03:45:11;;;;;;;6.72;6.10;;;26.30;46.90;26.60;100625.00;;;;5009269;28;20171;-55
2023/06/10 03:47:37;;;;;;;6.57;6.07;;;26.30;46.60;26.60;100620.00;;;;5009221;28;20187;-53
2023/06/10 03:50:07;;;;;;;6.55;6.03;;;26.30;46.80;26.60;100581.00;;;;5009497;28;20196;-54
2023/06/10 03:52:34;;;;;;;6.35;5.85;;;26.30;46.90;26.60;100625.00;;;;5009898;28;20214;-53
2023/06/10 03:55:00;;;;;;;6.97;6.38;;;26.20;47.00;26.60;100625.00;;;;5008341;28;20171;-54
2023/06/10 03:57:26;;;;;;;6.82;6.32;;;26.20;47.10;26.50;100626.00;;;;5009147;28;20234;-54
2023/06/10 03:59:51;;;;;;;6.75;6.20;;;26.20;47.10;26.50;100631.00;;;;5011659;28;20271;-53
2023/06/10 04:02:17;;;;;;;6.28;5.78;;;26.20;47.20;26.50;100638.00;;;;5012856;28;20607;-55
2023/06/10 04:04:43;;;;;;;6.55;6.03;;;26.20;47.30;26.50;100623.00;;;;5012745;28;20206;-53
2023/06/10 04:07:09;;;;;;;6.05;5.60;;;26.20;47.30;26.50;100623.00;;;;5004907;28;20177;-52
2023/06/10 04:09:35;;;;;;;6.55;6.05;;;26.10;47.40;26.50;100617.00;;;;5021767;28;20191;-56
2023/06/10 04:12:02;;;;;;;6.75;6.25;;;26.20;47.50;26.50;100629.00;;;;4999104;28;20313;-54
2023/06/10 04:14:28;;;;;;;6.47;5.90;;;26.10;47.50;26.40;100634.00;;;;5009170;28;20178;-55
2023/06/10 04:16:54;;;;;;;6.65;6.07;;;26.10;47.60;26.40;100641.00;;;;5007575;28;20203;-55
2023/06/10 04:19:20;;;;;;;6.32;5.82;;;26.10;47.60;26.40;100641.00;;;;5004641;28;20191;-55
2023/06/10 04:21:46;;;;;;;6.65;6.07;;;26.10;47.60;26.40;100640.00;;;;5009611;28;20693;-54
2023/06/10 04:24:12;;;;;;;6.43;5.93;;;26.10;47.50;26.40;100645.00;;;;5019843;28;20182;-53
2023/06/10 04:26:38;;;;;;;6.53;5.95;;;26.10;47.60;26.40;100648.00;;;;5013947;28;20724;-55
2023/06/10 04:29:04;;;;;;;5.72;5.32;;;26.10;47.60;26.40;100653.00;;;;5009170;28;20258;-55
2023/06/10 04:31:30;;;;;;;6.75;6.25;;;26.00;47.60;26.40;100647.00;;;;5006554;28;20230;-54
2023/06/10 04:33:55;;;;;;;6.50;6.00;;;26.10;47.80;26.30;100644.00;;;;5007896;28;20202;-54
2023/06/10 04:36:21;;;;;;;6.38;5.90;;;26.00;47.80;26.30;100653.00;;;;5009710;28;20185;-54
2023/06/10 04:38:47;;;;;;;6.78;6.28;;;26.00;47.80;26.30;100653.00;;;;5007218;28;20171;-54
2023/06/10 04:41:13;;;;;;;6.35;5.85;;;26.00;48.10;26.30;100651.00;;;;5007987;28;20195;-55
2023/06/10 04:43:38;;;;;;;7.07;6.45;;;26.00;47.80;26.30;100654.00;;;;5007939;28;20175;-54
2023/06/10 04:46:04;;;;;;;6.10;5.60;;;26.00;47.80;26.30;100650.00;;;;5007317;28;20191;-54
2023/06/10 04:48:30;;;;;;;6.50;6.00;;;26.00;48.10;26.30;100656.00;;;;5007444;28;20191;-55
2023/06/10 04:50:56;;;;;;;6.47;5.97;;;26.00;48.20;26.30;100659.00;;;;5006637;28;20214;-55
2023/06/10 04:53:22;;;;;;;6.18;5.78;;;26.00;48.20;26.20;100651.00;;;;5008361;28;20222;-53
2023/06/10 04:55:48;;;;;;;6.43;5.70;;;25.90;48.90;26.20;100645.00;;;;5007140;28;20175;-53
2023/06/10 04:58:14;;;;;;;6.45;5.80;;;25.90;48.50;26.20;100656.00;;;;5008189;28;20565;-53
2023/06/10 05:00:40;;;;;;;6.40;5.90;;;25.90;48.60;26.20;100653.00;;;;5008381;28;20239;-55
2023/06/10 05:03:06;;;;;;;6.20;5.60;;;25.90;48.80;26.20;100653.00;;;;5008048;28;20242;-54
2023/06/10 05:05:31;;;;;;;6.45;5.95;;;25.90;48.90;26.20;100655.00;;;;5008656;28;20183;-55
2023/06/10 05:07:57;;;;;;;6.40;5.90;;;25.90;48.90;26.20;100654.00;;;;5007619;28;20549;-53
2023/06/10 05:10:23;;;;;;;6.55;5.95;;;25.90;48.90;26.20;100649.00;;;;5007417;28;20180;-55
2023/06/10 05:12:49;;;;;;;6.55;5.90;;;25.80;48.90;26.20;100644.00;;;;5007836;28;20199;-53
2023/06/10 05:15:14;;;;;;;6.78;6.25;;;25.80;48.90;26.20;100653.00;;;;5008092;28;20704;-54
2023/06/10 05:17:40;;;;;;;7.20;6.70;;;25.80;48.90;26.20;100653.00;;;;5007616;28;20238;-55
2023/06/10 05:20:06;;;;;;;7.28;6.60;;;25.90;49.20;26.20;100648.00;;;;5008248;28;20298;-54
2023/06/10 05:22:32;;;;;;;7.00;6.40;;;25.90;48.90;26.20;100650.00;;;;5007722;28;20210;-52
2023/06/10 05:24:58;;;;;;;7.25;6.65;;;25.90;48.90;26.10;100652.00;;;;5006945;28;20172;-54
2023/06/10 05:27:24;;;;;;;7.13;6.35;;;25.90;48.90;26.10;100655.00;;;;5007261;28;20243;-53
2023/06/10 05:29:51;;;;;;;6.70;6.10;;;25.80;48.90;26.10;100661.00;;;;5008359;28;20254;-54
2023/06/10 05:32:17;;;;;;;6.78;6.18;;;25.80;48.70;26.10;100657.00;;;;5008463;28;20203;-53
2023/06/10 05:34:43;;;;;;;6.40;5.80;;;25.80;48.70;26.10;100665.00;;;;5007648;28;20238;-53
2023/06/10 05:37:09;;;;;;;6.30;5.70;;;25.80;48.80;26.10;100665.00;;;;5006596;28;20681;-53
2023/06/10 05:39:37;;;;;;;6.68;6.07;;;25.80;48.90;26.10;100660.00;;;;5006562;28;20184;-54
2023/06/10 05:42:08;;;;;;;6.70;6.10;;;25.80;49.00;26.10;100657.00;;;;5008133;28;20219;-54
2023/06/10 05:44:34;;;;;;;6.30;5.70;;;25.70;48.80;26.10;100663.00;;;;5011592;28;20599;-53
2023/06/10 05:47:00;;;;;;;5.97;5.50;;;25.80;49.50;26.10;100661.00;;;;5011451;28;20172;-54
2023/06/10 05:49:25;;;;;;;5.78;5.28;;;25.80;48.90;26.10;100661.00;;;;5011395;28;20202;-54
2023/06/10 05:51:52;;;;;;;5.63;5.13;;;25.70;48.80;26.10;100663.00;;;;5011759;28;20324;-53
2023/06/10 05:54:18;;;;;;;6.25;5.75;;;25.70;48.80;26.10;100667.00;;;;5011563;28;20179;-53
2023/06/10 05:56:44;;;;;;;6.40;5.90;;;25.70;48.90;26.00;100665.00;;;;5010969;28;20200;-53
2023/06/10 05:59:10;;;;;;;6.88;6.28;;;25.70;49.10;26.00;100666.00;;;;5011421;28;20171;-54
2023/06/10 06:01:36;;;;;;;6.68;6.07;;;25.70;49.20;26.00;100668.00;;;;5011525;28;20246;-54
2023/06/10 06:04:01;;;;;;;5.95;5.55;;;25.70;49.30;26.00;100667.00;;;;5011502;28;20206;-54
2023/06/10 06:06:27;;;;;;;6.30;5.80;;;25.70;49.40;26.00;100668.00;;;;5010806;28;20672;-54
2023/06/10 06:08:53;;;;;;;6.15;5.65;;;25.60;49.40;26.00;100657.00;;;;5010027;28;20179;-54
2023/06/10 06:11:19;;;;;;;6.00;5.60;;;25.70;49.50;26.00;100669.00;;;;5009057;28;20200;-53
2023/06/10 06:13:44;;;;;;;6.30;5.90;;;25.60;49.50;26.00;100674.00;;;;5014249;28;20857;-54
2023/06/10 06:16:10;;;;;;;5.82;5.38;;;25.60;49.60;26.00;100663.00;;;;5010744;28;20179;-54
2023/06/10 06:18:36;;;;;;;5.72;5.32;;;25.60;49.50;26.00;100662.00;;;;5010213;28;20242;-54
2023/06/10 06:21:02;;;;;;;5.90;5.40;;;25.60;49.40;26.00;100667.00;;;;5011199;28;20195;-54
2023/06/10 06:23:27;;;;;;;5.90;5.50;;;25.60;49.60;26.00;100671.00;;;;5011383;28;20180;-53
2023/06/10 06:25:53;;;;;;;6.18;5.57;;;25.60;49.10;26.00;100666.00;;;;5016138;28;20168;-53
2023/06/10 06:28:20;;;;;;;6.00;5.50;;;25.60;49.40;26.00;100669.00;;;;5021220;28;20172;-54
2023/06/10 06:30:46;;;;;;;6.25;5.75;;;25.70;49.20;25.90;100664.00;;;;5011716;28;20183;-54
2023/06/10 06:33:13;;;;;;;5.95;5.53;;;25.50;49.20;26.00;100664.00;;;;5011161;28;20221;-54
2023/06/10 06:35:38;;;;;;;5.75;5.35;;;25.50;49.30;26.00;100664.00;;;;5009793;28;20176;-54
2023/06/10 06:38:04;;;;;;;6.45;5.95;;;25.50;49.60;26.00;100669.00;;;;5010617;28;20202;-53
2023/06/10 06:40:30;;;;;;;6.03;5.43;;;25.50;49.50;26.00;100673.00;;;;5010544;28;20179;-54
2023/06/10 06:42:56;;;;;;;6.07;5.63;;;25.50;49.60;26.00;100672.00;;;;5015650;28;20597;-52
2023/06/10 06:45:22;;;;;;;6.53;6.03;;;25.50;49.40;26.00;100676.00;;;;5009956;28;20199;-51
2023/06/10 06:47:47;;;;;;;6.03;5.63;;;25.50;49.60;26.00;100683.00;;;;5010557;28;20180;-54
2023/06/10 06:50:13;;;;;;;5.93;5.28;;;25.50;49.60;26.00;100672.00;;;;5010107;28;20278;-55
2023/06/10 06:52:39;;;;;;;6.00;5.50;;;25.50;49.60;26.00;100677.00;;;;5010621;28;20192;-54
2023/06/10 06:55:08;;;;;;;6.18;5.47;;;25.50;49.40;26.00;100673.00;;;;5009357;28;20258;-54
2023/06/10 06:57:34;;;;;;;5.78;5.38;;;25.50;49.50;26.00;100680.00;;;;5009459;28;20257;-53
2023/06/10 07:00:00;;;;;;;5.70;5.20;;;25.50;49.50;26.00;100679.00;;;;5009784;28;20172;-53
2023/06/10 07:02:25;;;;;;;5.97;5.57;;;25.50;49.50;26.00;100674.00;;;;5009810;28;20194;-53
2023/06/10 07:04:54;;;;;;;5.43;5.03;;;25.50;49.50;26.00;100689.00;;;;5006125;28;20179;-53
2023/06/10 07:07:19;;;;;;;6.00;5.50;;;25.50;49.60;26.00;100686.00;;;;5010930;28;20180;-53
2023/06/10 07:09:45;;;;;;;5.82;5.38;;;25.50;49.50;26.00;100642.00;;;;5010860;28;20661;-55
2023/06/10 07:12:13;;;;;;;5.40;5.00;;;25.50;49.50;26.10;100688.00;;;;5011578;28;20207;-55
2023/06/10 07:14:39;;;;;;;6.20;5.70;;;25.50;49.50;26.10;100687.00;;;;5009987;28;20184;-55
2023/06/10 07:17:05;;;;;;;5.50;5.10;;;25.50;49.50;26.10;100631.00;;;;5009799;28;20210;-55
2023/06/10 07:19:30;;;;;;;5.88;5.38;;;25.50;49.40;26.10;100686.00;;;;5008211;28;20183;-53
2023/06/10 07:21:56;;;;;;;5.57;5.18;;;25.60;49.40;26.10;100683.00;;;;5010201;28;20192;-55
2023/06/10 07:24:22;;;;;;;5.78;5.30;;;25.60;49.40;26.10;100687.00;;;;5012545;28;20198;-53
2023/06/10 07:26:48;;;;;;;5.43;5.03;;;25.60;49.40;26.10;100681.00;;;;5009832;28;20180;-50
2023/06/10 07:29:13;;;;;;;6.13;5.63;;;25.60;50.20;26.20;100683.00;;;;5010044;28;20203;-55
2023/06/10 07:31:40;;;;;;;6.72;5.50;;;25.70;50.10;26.20;100681.00;;;;5008482;28;20336;-56
2023/06/10 07:34:06;;;;;;;6.38;5.78;;;25.70;50.10;26.20;100683.00;;;;5008117;28;20167;-57
2023/06/10 07:36:32;;;;;;;6.45;5.85;;;25.70;50.10;26.20;100676.00;;;;5008561;28;20535;-56
2023/06/10 07:38:58;;;;;;;6.22;5.72;;;25.70;50.10;26.20;100677.00;;;;5008338;28;20227;-56
2023/06/10 07:41:25;;;;;;;5.85;5.35;;;25.70;50.30;26.20;100680.00;;;;5009057;28;20722;-57
2023/06/10 07:43:54;;;;;;;5.93;5.43;;;25.70;50.10;26.20;100676.00;;;;5009434;28;20176;-57
2023/06/10 07:46:21;;;;;;;6.20;5.68;;;25.70;50.30;26.20;100676.00;;;;5009393;28;20176;-57
2023/06/10 07:48:47;;;;;;;6.32;5.75;;;25.70;50.30;26.30;100674.00;;;;5008765;28;20653;-56
2023/06/10 07:51:13;;;;;;;6.25;5.72;;;25.70;50.30;26.30;100676.00;;;;5008998;28;20685;-56
2023/06/10 07:53:40;;;;;;;5.90;5.40;;;25.70;50.30;26.30;100678.00;;;;5008805;28;20234;-56
2023/06/10 07:56:05;;;;;;;5.63;5.13;;;25.80;50.40;26.30;100673.00;;;;5006861;28;20175;-56
2023/06/10 07:58:31;;;;;;;6.07;5.57;;;25.70;50.90;26.30;100665.00;;;;5011060;28;20247;-56
2023/06/10 08:00:57;;;;;;;5.95;5.45;;;25.70;50.30;26.30;100670.00;;;;5015071;28;20191;-57
2023/06/10 08:03:22;;;;;;;5.57;5.18;;;25.80;50.50;26.30;100681.00;;;;5008676;28;20172;-56
2023/06/10 08:05:48;;;;;;;5.80;5.40;;;25.80;50.60;26.30;100670.00;;;;5008242;28;20211;-57
2023/06/10 08:08:14;;;;;;;6.55;6.03;;;25.80;50.60;26.40;100675.00;;;;5009456;28;20175;-57
2023/06/10 08:10:40;;;;;;;6.18;5.68;;;25.80;50.60;26.40;100674.00;;;;5009289;28;20180;-57
2023/06/10 08:13:07;;;;;;;6.57;5.97;;;25.80;50.60;26.40;100674.00;;;;5009266;28;20748;-57
2023/06/10 08:15:33;;;;;;;6.10;5.60;;;25.80;50.70;26.40;100679.00;;;;5011335;28;20211;-57
2023/06/10 08:17:59;;;;;;;6.32;5.78;;;25.80;50.80;26.40;100680.00;;;;5028403;28;20192;-57
2023/06/10 08:20:25;;;;;;;6.30;5.80;;;25.80;50.80;26.40;100668.00;;;;5012829;28;20183;-57
2023/06/10 08:22:50;;;;;;;6.55;6.05;;;25.80;51.00;26.40;100676.00;;;;5009492;28;20195;-57
2023/06/10 08:25:16;;;;;;;6.22;5.63;;;25.80;51.00;26.40;100678.00;;;;5009229;28;20164;-57
2023/06/10 08:27:42;;;;;;;6.78;6.22;;;25.80;50.90;26.50;100680.00;;;;5008614;28;20180;-57
2023/06/10 08:30:10;;;;;;;6.53;5.93;;;25.80;50.80;26.50;100672.00;;;;5009586;28;20167;-57
2023/06/10 08:32:36;;;;;;;5.82;5.43;;;25.80;50.70;26.50;100676.00;;;;5013985;28;20208;-57
2023/06/10 08:35:02;;;;;;;6.78;6.18;;;25.80;50.70;26.50;100681.00;;;;5013105;28;20176;-57
2023/06/10 08:37:29;;;;;;;6.70;6.10;;;25.80;50.70;26.50;100681.00;;;;5008280;28;20227;-57
2023/06/10 08:39:54;;;;;;;6.47;5.97;;;25.80;50.80;26.50;100677.00;;;;5007886;28;20218;-57
2023/06/10 08:42:36;;;;;;;6.38;5.82;;;25.90;50.90;26.50;100680.00;;;;5008510;28;20211;-56
2023/06/10 08:45:02;;;;;;;6.60;5.90;;;25.90;51.00;26.50;100676.00;;;;5008127;28;20171;-56
2023/06/10 08:47:31;;;;;;;6.00;5.60;;;25.90;51.00;26.50;100677.00;;;;5006992;28;20179;-56
2023/06/10 08:50:01;;;;;;;6.38;5.88;;;25.90;51.10;26.50;100660.00;;;;5008048;28;20217;-56
2023/06/10 08:52:26;;;;;;;6.60;5.90;;;25.90;51.20;26.60;100675.00;;;;5006405;28;20200;-55
2023/06/10 08:55:25;;;;;;;6.32;5.75;;;25.90;51.20;26.60;100667.00;;;;4990407;28;20202;-56
2023/06/10 08:57:52;;;;;;;7.05;6.15;;;25.90;51.30;26.50;100667.00;;;;4986550;28;20209;-57
2023/06/10 09:00:18;;;;;;;6.10;5.50;;;26.00;51.60;26.60;100669.00;;;;5014584;28;20268;-59
2023/06/10 09:02:44;;;;;;;6.15;5.55;;;26.00;51.60;26.60;100661.00;;;;5007621;28;20294;-56
2023/06/10 09:05:10;;;;;;;6.57;5.97;;;26.00;52.00;26.60;100659.00;;;;5007040;28;20175;-57
2023/06/10 09:07:36;;;;;;;6.80;6.30;;;26.00;52.10;26.60;100661.00;;;;5007294;28;20738;-57
2023/06/10 09:10:03;;;;;;;6.30;5.80;;;26.00;52.20;26.60;100663.00;;;;5008934;28;20175;-59
2023/06/10 09:12:29;;;;;;;6.40;5.80;;;26.00;52.30;26.60;100659.00;;;;5007927;28;20739;-57
2023/06/10 09:14:55;;;;;;;6.30;5.80;;;26.00;52.70;26.70;100664.00;;;;4998410;28;20203;-57
2023/06/10 09:17:21;;;;;;;6.20;5.70;;;26.10;52.80;26.70;100661.00;;;;5008525;28;20231;-57
2023/06/10 09:19:47;;;;;;;7.85;6.20;;;26.10;52.90;26.70;100663.00;;;;5001064;28;20709;-57
2023/06/10 09:22:13;;;;;;;6.60;6.00;;;26.10;52.80;26.70;100657.00;;;;5012808;28;20195;-57
2023/06/10 09:24:39;;;;;;;6.60;6.10;;;26.10;52.80;26.70;100655.00;;;;5012482;28;20229;-58
2023/06/10 09:27:06;;;;;;;6.03;5.53;;;26.20;52.80;26.70;100653.00;;;;5010046;28;20180;-58
2023/06/10 09:29:53;;;;;;;6.40;5.90;;;26.10;52.60;26.70;100650.00;;;;5011890;28;20263;-59
2023/06/10 09:32:19;;;;;;;9.23;5.75;;;26.10;52.80;26.80;100648.00;;;;5009186;28;20198;-58
2023/06/10 09:34:45;;;;;;;6.13;5.53;;;26.20;53.00;26.80;100650.00;;;;5012328;28;20175;-60
2023/06/10 09:37:13;;;;;;;6.35;5.80;;;26.20;53.20;26.80;100648.00;;;;5009992;28;20294;-55
2023/06/10 09:39:42;;;;;;;6.88;5.90;;;26.20;53.30;26.80;100655.00;;;;5012022;28;20207;-58
2023/06/10 09:42:18;;;;;;;6.00;5.50;;;26.20;53.20;26.80;100656.00;;;;5010340;28;20191;-57
2023/06/10 09:44:52;;;;;;;6.20;5.60;;;26.20;53.20;26.80;100648.00;;;;5011932;28;20188;-56
2023/06/10 09:47:22;;;;;;;6.18;5.57;;;26.20;53.90;26.80;100648.00;;;;5011222;28;20814;-57
2023/06/10 09:49:53;;;;;;;6.40;5.70;;;26.20;53.20;26.90;100648.00;;;;5011585;28;20211;-57
2023/06/10 09:52:28;;;;;;;6.10;5.60;;;26.20;53.30;26.90;100640.00;;;;5019274;28;20204;-55
2023/06/10 09:54:54;;;;;;;5.72;5.22;;;26.20;53.80;26.90;100637.00;;;;5010738;28;20195;-55
2023/06/10 09:57:21;;;;;;;5.88;5.38;;;26.20;54.60;26.90;100636.00;;;;5011087;28;20202;-54
2023/06/10 09:59:46;;;;;;;6.38;5.82;;;26.30;54.10;26.90;100642.00;;;;5019876;28;20175;-55
2023/06/10 10:02:16;;;;;;;6.43;5.82;;;26.30;54.10;27.00;100641.00;;;;5011943;28;20290;-54
2023/06/10 10:04:45;;;;;;;5.90;5.40;;;26.30;54.20;27.00;100644.00;;;;5011326;28;20183;-54
2023/06/10 10:07:11;;;;;;;6.28;5.60;;;26.30;54.30;27.00;100639.00;;;;5011333;28;20566;-54
2023/06/10 10:09:41;;;;;;;5.90;5.40;;;26.30;54.40;27.00;100635.00;;;;5009428;28;20182;-54
2023/06/10 10:12:13;;;;;;;5.97;5.43;;;26.30;54.40;27.00;100635.00;;;;5011523;28;20203;-55
2023/06/10 10:14:40;;;;;;;5.75;5.35;;;26.30;54.40;27.00;100643.00;;;;5010616;28;20793;-54
2023/06/10 10:17:11;;;;;;;5.68;5.28;;;26.40;54.40;27.10;100644.00;;;;5010022;28;20261;-53
2023/06/10 10:19:59;;;;;;;5.93;5.43;;;26.40;54.60;27.10;100643.00;;;;5011227;28;20195;-55
2023/06/10 10:22:26;;;;;;;7.22;5.10;;;26.40;54.70;27.10;100639.00;;;;5010014;28;20199;-54
2023/06/10 10:25:00;;;;;;;5.40;5.00;;;26.40;54.80;27.10;100577.00;;;;5005136;28;20174;-54
2023/06/10 10:27:36;;;;;;;5.55;5.05;;;26.50;54.90;27.10;100641.00;;;;5003438;28;20183;-55
2023/06/10 10:30:04;;;;;;;5.65;5.15;;;26.50;54.80;27.20;100636.00;;;;5023036;28;20260;-55
2023/06/10 10:32:35;;;;;;;5.47;5.07;;;26.50;54.80;27.20;100634.00;;;;5012555;28;20732;-55
2023/06/10 10:35:08;;;;;;;5.57;5.07;;;26.50;54.60;27.20;100647.00;;;;4993927;28;20176;-55
2023/06/10 10:37:33;;;;;;;5.53;5.13;;;26.60;55.30;27.20;100628.00;;;;5009281;28;20219;-55
2023/06/10 10:39:59;;;;;;;5.60;5.20;;;26.60;55.40;27.20;100642.00;;;;5010417;28;20199;-55
2023/06/10 10:42:25;;;;;;;5.18;4.78;;;26.60;55.30;27.30;100649.00;;;;5017356;28;20191;-55
2023/06/10 10:44:51;;;;;;;5.47;4.93;;;26.60;54.80;27.30;100629.00;;;;4995229;28;20667;-55
2023/06/10 10:47:17;;;;;;;5.60;5.10;;;26.60;54.60;27.30;100631.00;;;;5009179;28;20810;-54